createdAt,value
2019-03-13T00:00:25.359Z,99156.88
2019-03-13T00:02:51.955Z,99153.86
2019-03-13T00:05:18.529Z,99150.48
2019-03-13T00:07:45.109Z,99153.49
2019-03-13T00:10:11.689Z,99142.23
2019-03-13T00:12:38.302Z,99144.88
2019-03-13T00:15:04.872Z,99145.80
2019-03-13T00:17:31.491Z,99138.45
2019-03-13T00:19:58.254Z,99134.22
2019-03-13T00:22:24.914Z,99137.67
2019-03-13T00:24:51.615Z,99120.02
2019-03-13T00:27:18.296Z,99120.09
2019-03-13T00:29:44.958Z,99116.67
2019-03-13T00:32:11.564Z,99106.75
2019-03-13T00:34:38.145Z,99097.23
2019-03-13T00:37:04.761Z,99094.63
2019-03-13T00:39:31.331Z,99078.20
2019-03-13T00:41:57.937Z,99066.09
2019-03-13T00:44:24.518Z,99069.98
2019-03-13T00:46:51.111Z,99063.48
2019-03-13T00:49:17.681Z,99057.42
2019-03-13T00:51:44.286Z,99048.31
2019-03-13T00:54:10.848Z,99053.03
2019-03-13T00:56:37.469Z,99047.87
2019-03-13T00:59:04.219Z,99043.52
2019-03-13T01:01:30.877Z,99031.47
2019-03-13T01:03:57.505Z,99035.87
2019-03-13T01:06:24.074Z,99048.44
2019-03-13T01:08:50.644Z,99048.92
2019-03-13T01:11:17.212Z,99045.95
2019-03-13T01:13:43.783Z,99039.45
2019-03-13T01:16:10.359Z,99032.09
2019-03-13T01:18:36.936Z,99024.28
2019-03-13T01:21:03.502Z,99025.58
2019-03-13T01:23:30.075Z,99023.02
2019-03-13T01:25:56.646Z,99019.13
2019-03-13T01:28:23.227Z,99013.91
2019-03-13T01:30:49.800Z,99011.31
2019-03-13T01:33:16.381Z,99006.96
2019-03-13T01:35:42.954Z,99009.16
2019-03-13T01:38:09.516Z,98995.74
2019-03-13T01:40:36.087Z,98997.09
2019-03-13T01:43:02.660Z,98996.68
2019-03-13T01:45:29.244Z,98990.18
2019-03-13T01:47:55.821Z,98994.98
2019-03-13T01:50:22.392Z,98991.64
2019-03-13T01:52:48.965Z,99000.22
2019-03-13T01:55:15.537Z,98999.00
2019-03-13T01:57:42.112Z,98990.78
2019-03-13T02:00:08.705Z,98989.48
2019-03-13T02:02:35.282Z,98985.58
2019-03-13T02:05:01.851Z,98982.98
2019-03-13T02:07:28.430Z,98965.26
2019-03-13T02:09:55.002Z,98963.10
2019-03-13T02:12:21.602Z,98964.05
2019-03-13T02:14:48.209Z,98952.83
2019-03-13T02:17:14.789Z,98948.52
2019-03-13T02:19:41.377Z,98930.39
2019-03-13T02:22:07.955Z,98939.99
2019-03-13T02:24:34.570Z,98937.39
2019-03-13T02:27:01.135Z,98925.36
2019-03-13T02:29:27.749Z,98929.70
2019-03-13T02:31:54.326Z,98940.59
2019-03-13T02:34:21.029Z,98935.84
2019-03-13T02:36:47.701Z,98931.17
2019-03-13T02:39:14.310Z,98927.31
2019-03-13T02:41:40.922Z,98929.88
2019-03-13T02:44:07.574Z,98915.53
2019-03-13T02:46:34.147Z,98909.88
2019-03-13T02:49:00.735Z,98905.08
2019-03-13T02:51:27.436Z,98892.03
2019-03-13T02:53:54.083Z,98895.04
2019-03-13T02:56:20.670Z,98887.69
2019-03-13T02:58:47.268Z,98893.25
2019-03-13T03:01:13.844Z,98888.05
2019-03-13T03:03:40.459Z,98879.31
2019-03-13T03:06:07.033Z,98876.66
2019-03-13T03:08:33.622Z,98873.17
2019-03-13T03:11:00.208Z,98875.28
2019-03-13T03:13:26.819Z,98857.97
2019-03-13T03:15:53.449Z,98860.56
2019-03-13T03:18:20.054Z,98862.72
2019-03-13T03:20:46.635Z,98856.13
2019-03-13T03:23:13.246Z,98856.93
2019-03-13T03:25:39.829Z,98858.19
2019-03-13T03:28:06.455Z,98851.23
2019-03-13T03:30:33.021Z,98848.19
2019-03-13T03:32:59.586Z,98843.78
2019-03-13T03:35:26.177Z,98841.06
2019-03-13T03:37:52.742Z,98840.66
2019-03-13T03:40:22.281Z,98835.77
2019-03-13T03:42:47.607Z,98833.52
2019-03-13T03:45:14.193Z,98829.13
2019-03-13T03:47:40.763Z,98830.38
2019-03-13T03:50:07.341Z,98822.52
2019-03-13T03:52:33.910Z,98819.92
2019-03-13T03:55:00.713Z,98813.77
2019-03-13T03:57:27.445Z,98812.78
2019-03-13T03:59:54.014Z,98814.04
2019-03-13T04:02:20.591Z,98814.84
2019-03-13T04:04:47.161Z,98813.45
2019-03-13T04:07:13.719Z,98805.14
2019-03-13T04:09:40.295Z,98801.59
2019-03-13T04:12:06.866Z,98802.84
2019-03-13T04:14:33.440Z,98798.41
2019-03-13T04:17:00.015Z,98798.75
2019-03-13T04:19:26.582Z,98801.31
2019-03-13T04:21:53.149Z,98790.05
2019-03-13T04:24:19.716Z,98781.78
2019-03-13T04:26:46.301Z,98776.13
2019-03-13T04:29:12.872Z,98769.17
2019-03-13T04:31:39.457Z,98772.13
2019-03-13T04:34:06.019Z,98761.61
2019-03-13T04:36:32.590Z,98757.25
2019-03-13T04:38:59.176Z,98744.98
2019-03-13T04:41:25.753Z,98744.80
2019-03-13T04:43:52.357Z,98742.89
2019-03-13T04:46:18.920Z,98740.98
2019-03-13T04:48:45.519Z,98736.44
2019-03-13T04:51:12.097Z,98728.52
2019-03-13T04:53:38.684Z,98724.90
2019-03-13T04:56:05.267Z,98724.39
2019-03-13T04:58:31.830Z,98726.41
2019-03-13T05:00:58.409Z,98719.39
2019-03-13T05:03:24.978Z,98722.68
2019-03-13T05:05:51.563Z,98727.39
2019-03-13T05:08:18.247Z,98724.27
2019-03-13T05:10:44.840Z,98721.56
2019-03-13T05:13:11.542Z,98727.03
2019-03-13T05:15:38.297Z,98732.58
2019-03-13T05:18:04.858Z,98729.81
2019-03-13T05:20:31.478Z,98730.09
2019-03-13T05:22:58.047Z,98729.84
2019-03-13T05:25:24.634Z,98731.15
2019-03-13T05:27:51.210Z,98724.30
2019-03-13T05:30:17.822Z,98720.63
2019-03-13T05:32:44.384Z,98724.31
2019-03-13T05:35:10.992Z,98720.23
2019-03-13T05:37:37.565Z,98724.28
2019-03-13T05:40:04.180Z,98718.83
2019-03-13T05:42:30.748Z,98705.92
2019-03-13T05:44:57.352Z,98704.38
2019-03-13T05:47:23.921Z,98701.53
2019-03-13T05:49:50.539Z,98698.31
2019-03-13T05:52:17.115Z,98701.92
2019-03-13T05:54:43.756Z,98707.27
2019-03-13T05:57:10.327Z,98701.80
2019-03-13T05:59:36.951Z,98699.80
2019-03-13T06:02:03.567Z,98708.19
2019-03-13T06:04:30.214Z,98704.42
2019-03-13T06:06:56.780Z,98701.80
2019-03-13T06:09:25.617Z,98709.25
2019-03-13T06:11:51.769Z,98715.36
2019-03-13T06:14:18.375Z,98690.13
2019-03-13T06:16:44.953Z,98702.73
2019-03-13T06:19:11.525Z,98691.92
2019-03-13T06:21:38.365Z,98691.13
2019-03-13T06:24:05.040Z,98678.02
2019-03-13T06:26:31.636Z,98680.22
2019-03-13T06:28:58.231Z,98679.98
2019-03-13T06:31:24.791Z,98685.26
2019-03-13T06:33:51.387Z,98684.63
2019-03-13T06:36:17.965Z,98683.50
2019-03-13T06:38:44.539Z,98683.75
2019-03-13T06:41:11.099Z,98686.55
2019-03-13T06:43:37.737Z,98675.84
2019-03-13T06:46:04.317Z,98683.72
2019-03-13T06:48:30.913Z,98676.94
2019-03-13T06:50:57.466Z,98687.16
2019-03-13T06:53:24.040Z,98687.86
2019-03-13T06:55:50.616Z,98682.94
2019-03-13T06:58:17.180Z,98687.61
2019-03-13T07:00:43.754Z,98695.77
2019-03-13T07:03:10.331Z,98692.48
2019-03-13T07:05:36.951Z,98693.58
2019-03-13T07:08:03.516Z,98697.64
2019-03-13T07:10:30.117Z,98697.03
2019-03-13T07:12:56.684Z,98695.81
2019-03-13T07:15:23.338Z,98690.17
2019-03-13T07:17:49.920Z,98709.75
2019-03-13T07:20:16.501Z,98707.20
2019-03-13T07:22:43.075Z,98718.99
2019-03-13T07:25:09.641Z,98720.97
2019-03-13T07:27:36.220Z,98719.05
2019-03-13T07:30:02.783Z,98722.67
2019-03-13T07:32:29.393Z,98724.38
2019-03-13T07:34:55.965Z,98720.48
2019-03-13T07:37:22.564Z,98725.42
2019-03-13T07:39:49.138Z,98717.99
2019-03-13T07:42:15.812Z,98716.76
2019-03-13T07:44:42.391Z,98710.63
2019-03-13T07:47:08.961Z,98702.38
2019-03-13T07:49:35.582Z,98712.23
2019-03-13T07:52:02.181Z,98704.79
2019-03-13T07:54:28.805Z,98709.17
2019-03-13T07:56:55.398Z,98706.96
2019-03-13T07:59:21.961Z,98702.89
2019-03-13T08:01:48.524Z,98705.49
2019-03-13T08:04:15.094Z,98702.42
2019-03-13T08:06:41.674Z,98714.88
2019-03-13T08:09:08.253Z,98711.18
2019-03-13T08:11:34.833Z,98704.84
2019-03-13T08:14:01.403Z,98704.89
2019-03-13T08:16:27.993Z,98708.28
2019-03-13T08:18:54.604Z,98704.93
2019-03-13T08:21:21.165Z,98700.94
2019-03-13T08:23:47.739Z,98709.70
2019-03-13T08:26:14.328Z,98699.66
2019-03-13T08:28:40.972Z,98700.53
2019-03-13T08:31:07.563Z,98699.52
2019-03-13T08:33:34.142Z,98688.70
2019-03-13T08:36:00.720Z,98700.82
2019-03-13T08:38:27.282Z,98699.89
2019-03-13T08:40:53.877Z,98704.39
2019-03-13T08:43:20.499Z,98705.15
2019-03-13T08:45:47.081Z,98710.38
2019-03-13T08:48:13.668Z,98710.93
2019-03-13T08:50:40.238Z,98714.75
2019-03-13T08:53:06.849Z,98696.36
2019-03-13T08:55:33.428Z,98692.88
2019-03-13T08:58:00.044Z,98677.01
2019-03-13T09:00:26.615Z,98665.48
2019-03-13T09:02:53.232Z,98665.59
2019-03-13T09:05:19.894Z,98656.77
2019-03-13T09:07:46.469Z,98642.72
2019-03-13T09:10:13.072Z,98638.03
2019-03-13T09:12:39.628Z,98632.69
2019-03-13T09:15:06.227Z,98661.59
2019-03-13T09:17:33.108Z,98673.83
2019-03-13T09:19:59.719Z,98663.75
2019-03-13T09:22:26.281Z,98650.60
2019-03-13T09:24:52.890Z,98648.62
2019-03-13T09:27:19.454Z,98667.52
2019-03-13T09:29:47.992Z,98671.64
2019-03-13T09:32:14.545Z,98684.23
2019-03-13T09:34:41.117Z,98677.08
2019-03-13T09:37:07.693Z,98655.70
2019-03-13T09:39:34.274Z,98667.87
2019-03-13T09:42:00.845Z,98664.44
2019-03-13T09:44:27.419Z,98675.59
2019-03-13T09:46:54.035Z,98670.88
2019-03-13T09:49:20.597Z,98675.30
2019-03-13T09:51:47.280Z,98677.30
2019-03-13T09:54:13.838Z,98671.83
2019-03-13T09:56:40.444Z,98680.66
2019-03-13T09:59:07.020Z,98672.96
2019-03-13T10:01:33.594Z,98681.23
2019-03-13T10:04:00.173Z,98689.41
2019-03-13T10:06:26.764Z,98698.87
2019-03-13T10:08:53.339Z,98708.55
2019-03-13T10:11:19.920Z,98709.41
2019-03-13T10:13:46.488Z,98712.00
2019-03-13T10:16:13.077Z,98715.95
2019-03-13T10:18:39.722Z,98718.56
2019-03-13T10:21:06.294Z,98727.68
2019-03-13T10:23:32.890Z,98726.89
2019-03-13T10:25:59.490Z,98728.25
2019-03-13T10:28:26.061Z,98735.89
2019-03-13T10:30:52.644Z,98727.22
2019-03-13T10:33:19.323Z,98720.75
2019-03-13T10:35:45.893Z,98721.40
2019-03-13T10:38:14.022Z,98724.95
2019-03-13T10:40:40.771Z,98734.55
2019-03-13T10:43:07.339Z,98729.27
2019-03-13T10:45:33.944Z,98719.70
2019-03-13T10:48:00.519Z,98724.34
2019-03-13T10:50:27.108Z,98722.64
2019-03-13T10:52:53.686Z,98725.45
2019-03-13T10:55:20.329Z,98730.98
2019-03-13T10:57:46.913Z,98730.55
2019-03-13T11:00:13.480Z,98734.55
2019-03-13T11:02:40.055Z,98725.66
2019-03-13T11:05:06.625Z,98729.99
2019-03-13T11:07:33.218Z,98729.34
2019-03-13T11:09:59.784Z,98732.06
2019-03-13T11:12:26.357Z,98727.73
2019-03-13T11:14:52.939Z,98726.05
2019-03-13T11:17:19.516Z,98727.58
2019-03-13T11:19:46.090Z,98730.22
2019-03-13T11:22:12.706Z,98730.22
2019-03-13T11:24:39.294Z,98727.77
2019-03-13T11:27:05.875Z,98721.56
2019-03-13T11:29:32.490Z,98725.98
2019-03-13T11:31:59.061Z,98725.80
2019-03-13T11:34:25.679Z,98723.27
2019-03-13T11:36:52.246Z,98731.34
2019-03-13T11:39:18.844Z,98726.64
2019-03-13T11:41:45.427Z,98722.16
2019-03-13T11:44:12.021Z,98723.19
2019-03-13T11:46:38.598Z,98728.17
2019-03-13T11:49:05.220Z,98727.05
2019-03-13T11:51:31.835Z,98737.20
2019-03-13T11:53:58.408Z,98733.55
2019-03-13T11:56:24.990Z,98727.63
2019-03-13T11:58:51.560Z,98721.14
2019-03-13T12:01:18.135Z,98731.38
2019-03-13T12:03:44.707Z,98722.55
2019-03-13T12:06:11.282Z,98726.33
2019-03-13T12:08:37.850Z,98723.03
2019-03-13T12:11:04.466Z,98724.91
2019-03-13T12:13:31.069Z,98724.62
2019-03-13T12:15:57.705Z,98724.33
2019-03-13T12:18:24.288Z,98721.45
2019-03-13T12:20:50.942Z,98719.00
2019-03-13T12:23:17.514Z,98720.87
2019-03-13T12:25:44.103Z,98725.46
2019-03-13T12:28:10.677Z,98724.42
2019-03-13T12:30:37.254Z,98721.72
2019-03-13T12:33:03.840Z,98728.93
2019-03-13T12:35:30.417Z,98718.22
2019-03-13T12:37:56.997Z,98727.03
2019-03-13T12:40:23.561Z,98712.67
2019-03-13T12:42:50.166Z,98710.88
2019-03-13T12:45:16.739Z,98710.33
2019-03-13T12:47:43.326Z,98712.02
2019-03-13T12:50:09.905Z,98708.66
2019-03-13T12:52:36.547Z,98704.91
2019-03-13T12:55:03.160Z,98696.63
2019-03-13T12:57:29.731Z,98700.03
2019-03-13T12:59:56.335Z,98699.92
2019-03-13T13:02:22.906Z,98699.08
2019-03-13T13:04:49.545Z,98691.92
2019-03-13T13:07:16.105Z,98690.02
2019-03-13T13:09:42.723Z,98693.12
2019-03-13T13:12:09.293Z,98696.03
2019-03-13T13:14:35.888Z,98696.03
2019-03-13T13:17:02.547Z,98703.08
2019-03-13T13:19:29.225Z,98706.84
2019-03-13T13:21:55.795Z,98706.77
2019-03-13T13:24:22.380Z,98709.02
2019-03-13T13:26:50.170Z,98709.30
2019-03-13T13:29:17.137Z,98707.91
2019-03-13T13:31:43.697Z,98709.97
2019-03-13T13:34:10.264Z,98710.71
2019-03-13T13:36:36.828Z,98711.47
2019-03-13T13:39:03.412Z,98712.33
2019-03-13T13:41:29.984Z,98717.10
2019-03-13T13:43:56.554Z,98718.39
2019-03-13T13:46:23.125Z,98721.88
2019-03-13T13:48:49.694Z,98721.21
2019-03-13T13:51:16.271Z,98723.25
2019-03-13T13:53:42.876Z,98720.04
2019-03-13T13:56:09.496Z,98712.63
2019-03-13T13:58:36.070Z,98721.52
2019-03-13T14:01:02.648Z,98719.83
2019-03-13T14:03:29.228Z,98724.80
2019-03-13T14:05:55.798Z,98730.69
2019-03-13T14:08:22.377Z,98729.08
2019-03-13T14:10:49.002Z,98726.66
2019-03-13T14:13:15.571Z,98724.88
2019-03-13T14:15:42.154Z,98723.70
2019-03-13T14:18:08.723Z,98733.27
2019-03-13T14:20:37.278Z,98722.00
2019-03-13T14:23:03.626Z,98719.84
2019-03-13T14:25:30.244Z,98722.09
2019-03-13T14:27:56.905Z,98715.98
2019-03-13T14:30:23.541Z,98716.16
2019-03-13T14:32:50.108Z,98715.02
2019-03-13T14:35:16.703Z,98720.47
2019-03-13T14:37:43.287Z,98718.56
2019-03-13T14:40:09.920Z,98716.48
2019-03-13T14:42:36.580Z,98712.72
2019-03-13T14:45:03.155Z,98715.05
2019-03-13T14:47:29.730Z,98718.52
2019-03-13T14:49:56.309Z,98710.94
2019-03-13T14:52:22.892Z,98702.81
2019-03-13T14:54:49.457Z,98706.58
2019-03-13T14:57:16.042Z,98705.65
2019-03-13T14:59:42.614Z,98702.17
2019-03-13T15:02:09.196Z,98700.39
2019-03-13T15:04:35.760Z,98706.95
2019-03-13T15:07:02.343Z,98703.75
2019-03-13T15:09:28.918Z,98696.45
2019-03-13T15:11:55.498Z,98692.98
2019-03-13T15:14:22.066Z,98692.13
2019-03-13T15:16:49.511Z,98698.23
2019-03-13T15:19:16.089Z,98702.94
2019-03-13T15:21:42.669Z,98699.47
2019-03-13T15:24:09.237Z,98697.47
2019-03-13T15:26:35.879Z,98699.55
2019-03-13T15:29:02.507Z,98693.45
2019-03-13T15:31:29.100Z,98690.06
2019-03-13T15:33:55.674Z,98697.01
2019-03-13T15:36:22.439Z,98692.52
2019-03-13T15:38:49.153Z,98692.31
2019-03-13T15:41:15.726Z,98690.83
2019-03-13T15:43:42.299Z,98692.35
2019-03-13T15:46:08.912Z,98695.73
2019-03-13T15:48:35.494Z,98696.12
2019-03-13T15:51:02.116Z,98693.88
2019-03-13T15:53:28.691Z,98697.43
2019-03-13T15:55:55.295Z,98702.02
2019-03-13T15:58:21.869Z,98704.72
2019-03-13T16:00:48.457Z,98706.97
2019-03-13T16:03:15.034Z,98711.45
2019-03-13T16:05:41.627Z,98703.20
2019-03-13T16:08:08.200Z,98707.22
2019-03-13T16:10:34.792Z,98702.94
2019-03-13T16:13:01.360Z,98704.72
2019-03-13T16:15:27.939Z,98706.11
2019-03-13T16:17:54.526Z,98701.88
2019-03-13T16:20:21.444Z,98708.44
2019-03-13T16:22:48.050Z,98706.83
2019-03-13T16:25:14.621Z,98712.72
2019-03-13T16:27:41.274Z,98707.09
2019-03-13T16:30:07.852Z,98717.02
2019-03-13T16:32:43.552Z,98713.34
2019-03-13T16:35:02.741Z,98715.83
2019-03-13T16:37:29.362Z,98713.58
2019-03-13T16:39:55.945Z,98715.44
2019-03-13T16:42:22.560Z,98717.84
2019-03-13T16:44:49.133Z,98714.06
2019-03-13T16:47:15.751Z,98709.91
2019-03-13T16:49:42.318Z,98707.02
2019-03-13T16:52:08.922Z,98707.10
2019-03-13T16:54:35.493Z,98710.73
2019-03-13T16:57:02.113Z,98704.27
2019-03-13T16:59:28.696Z,98704.27
2019-03-13T17:01:55.295Z,98702.18
2019-03-13T17:04:21.928Z,98707.81
2019-03-13T17:06:48.547Z,98709.97
2019-03-13T17:09:15.115Z,98712.21
2019-03-13T17:11:41.750Z,98707.89
2019-03-13T17:14:08.374Z,98701.80
2019-03-13T17:16:36.181Z,98701.80
2019-03-13T17:19:02.758Z,98700.02
2019-03-13T17:21:29.433Z,98697.32
2019-03-13T17:23:56.016Z,98704.72
2019-03-13T17:26:22.628Z,98700.33
2019-03-13T17:28:50.426Z,98706.03
2019-03-13T17:31:17.177Z,98704.34
2019-03-13T17:33:43.765Z,98703.95
2019-03-13T17:36:10.375Z,98705.73
2019-03-13T17:38:36.959Z,98704.50
2019-03-13T17:41:03.554Z,98704.20
2019-03-13T17:43:39.264Z,98708.72
2019-03-13T17:45:58.445Z,98706.94
2019-03-13T17:48:25.024Z,98712.19
2019-03-13T17:50:51.599Z,98706.94
2019-03-13T17:53:18.189Z,98708.25
2019-03-13T17:55:44.779Z,98712.54
2019-03-13T17:58:11.348Z,98704.40
2019-03-13T18:00:37.924Z,98704.02
2019-03-13T18:03:04.552Z,98706.26
2019-03-13T18:05:31.150Z,98707.48
2019-03-13T18:07:57.796Z,98705.70
2019-03-13T18:10:24.366Z,98700.84
2019-03-13T18:12:50.973Z,98700.84
2019-03-13T18:15:17.548Z,98699.16
2019-03-13T18:17:44.167Z,98692.59
2019-03-13T18:20:10.747Z,98702.16
2019-03-13T18:22:37.355Z,98700.38
2019-03-13T18:25:03.935Z,98694.37
2019-03-13T18:27:30.543Z,98697.37
2019-03-13T18:29:57.120Z,98693.14
2019-03-13T18:32:23.721Z,98690.22
2019-03-13T18:34:50.291Z,98695.46
2019-03-13T18:37:16.966Z,98692.45
2019-03-13T18:39:44.720Z,98691.98
2019-03-13T18:42:11.328Z,98683.19
2019-03-13T18:44:38.170Z,98685.27
2019-03-13T18:47:04.786Z,98686.88
2019-03-13T18:49:31.357Z,98685.11
2019-03-13T18:51:58.034Z,98681.91
2019-03-13T18:54:24.609Z,98679.58
2019-03-13T18:56:51.218Z,98678.73
2019-03-13T18:59:17.796Z,98675.95
2019-03-13T19:01:44.369Z,98672.39
2019-03-13T19:04:10.948Z,98664.98
2019-03-13T19:06:37.520Z,98670.15
2019-03-13T19:09:04.182Z,98669.00
2019-03-13T19:11:30.751Z,98667.69
2019-03-13T19:13:58.304Z,98658.98
2019-03-13T19:16:25.085Z,98659.98
2019-03-13T19:18:51.691Z,98660.91
2019-03-13T19:21:18.268Z,98655.67
2019-03-13T19:23:44.844Z,98653.63
2019-03-13T19:26:11.451Z,98661.11
2019-03-13T19:28:38.077Z,98659.80
2019-03-13T19:31:04.734Z,98670.30
2019-03-13T19:33:31.344Z,98668.13
2019-03-13T19:35:57.970Z,98676.94
2019-03-13T19:38:24.545Z,98671.77
2019-03-13T19:40:51.123Z,98678.03
2019-03-13T19:43:17.735Z,98673.63
2019-03-13T19:45:44.318Z,98668.93
2019-03-13T19:48:10.894Z,98669.77
2019-03-13T19:50:37.482Z,98669.77
2019-03-13T19:53:04.076Z,98673.63
2019-03-13T19:55:30.649Z,98666.98
2019-03-13T19:57:57.262Z,98674.77
2019-03-13T20:00:23.876Z,98673.30
2019-03-13T20:02:59.878Z,98673.30
2019-03-13T20:05:18.772Z,98679.39
2019-03-13T20:07:45.490Z,98673.19
2019-03-13T20:10:12.229Z,98675.34
2019-03-13T20:12:38.845Z,98673.11
2019-03-13T20:15:05.406Z,98677.04
2019-03-13T20:17:32.060Z,98677.97
2019-03-13T20:19:58.662Z,98670.09
2019-03-13T20:22:25.361Z,98671.03
2019-03-13T20:24:51.932Z,98670.76
2019-03-13T20:27:18.539Z,98669.53
2019-03-13T20:29:45.117Z,98673.47
2019-03-13T20:32:11.686Z,98674.39
2019-03-13T20:34:38.267Z,98676.17
2019-03-13T20:37:04.853Z,98670.92
2019-03-13T20:39:31.486Z,98674.55
2019-03-13T20:41:58.118Z,98671.17
2019-03-13T20:44:24.695Z,98675.56
2019-03-13T20:46:51.268Z,98673.48
2019-03-13T20:49:17.850Z,98666.55
2019-03-13T20:51:44.423Z,98667.48
2019-03-13T20:54:11.002Z,98662.81
2019-03-13T20:56:37.575Z,98668.98
2019-03-13T20:59:04.150Z,98666.44
2019-03-13T21:01:30.809Z,98668.30
2019-03-13T21:03:57.381Z,98669.69
2019-03-13T21:06:23.957Z,98671.00
2019-03-13T21:08:50.521Z,98661.52
2019-03-13T21:11:17.146Z,98658.52
2019-03-13T21:13:43.847Z,98655.51
2019-03-13T21:16:10.404Z,98659.91
2019-03-13T21:18:41.041Z,98655.67
2019-03-13T21:21:05.290Z,98653.16
2019-03-13T21:23:31.861Z,98659.41
2019-03-13T21:25:58.437Z,98660.42
2019-03-13T21:28:25.008Z,98658.80
2019-03-13T21:30:51.599Z,98659.73
2019-03-13T21:33:18.214Z,98642.31
2019-03-13T21:35:44.819Z,98647.17
2019-03-13T21:38:13.086Z,98649.41
2019-03-13T21:40:39.725Z,98651.27
2019-03-13T21:43:06.347Z,98645.63
2019-03-13T21:45:41.175Z,98648.64
2019-03-13T21:48:01.237Z,98643.40
2019-03-13T21:50:27.803Z,98646.86
2019-03-13T21:52:54.371Z,98649.41
2019-03-13T21:55:20.952Z,98645.86
2019-03-13T21:57:47.522Z,98647.09
2019-03-13T22:00:14.128Z,98645.70
2019-03-13T22:02:40.706Z,98640.38
2019-03-13T22:05:07.317Z,98642.06
2019-03-13T22:07:33.994Z,98638.52
2019-03-13T22:10:00.690Z,98636.75
2019-03-13T22:12:27.251Z,98637.20
2019-03-13T22:14:53.854Z,98635.05
2019-03-13T22:17:20.428Z,98631.12
2019-03-13T22:19:47.045Z,98635.05
2019-03-13T22:22:13.623Z,98635.90
2019-03-13T22:24:40.229Z,98635.81
2019-03-13T22:27:06.907Z,98631.50
2019-03-13T22:29:33.561Z,98620.93
2019-03-13T22:32:00.126Z,98623.63
2019-03-13T22:34:26.737Z,98622.87
2019-03-13T22:36:53.316Z,98615.55
2019-03-13T22:39:20.847Z,98615.16
2019-03-13T22:41:47.419Z,98610.47
2019-03-13T22:44:14.021Z,98611.02
2019-03-13T22:46:40.599Z,98612.41
2019-03-13T22:49:07.206Z,98607.27
2019-03-13T22:51:35.801Z,98614.75
2019-03-13T22:54:02.096Z,98612.13
2019-03-13T22:56:28.674Z,98607.27
2019-03-13T22:58:55.292Z,98603.34
2019-03-13T23:01:21.866Z,98602.95
2019-03-13T23:03:48.490Z,98599.48
2019-03-13T23:06:15.067Z,98596.95
2019-03-13T23:08:41.662Z,98589.55
2019-03-13T23:11:08.238Z,98592.17
2019-03-13T23:13:34.843Z,98589.09
2019-03-13T23:16:01.414Z,98580.84
2019-03-13T23:18:27.991Z,98579.15
2019-03-13T23:20:54.581Z,98579.91
2019-03-13T23:23:21.149Z,98578.14
2019-03-13T23:25:48.698Z,98579.83
2019-03-13T23:28:15.275Z,98574.13
2019-03-13T23:30:41.873Z,98574.13
2019-03-13T23:33:08.504Z,98568.88
2019-03-13T23:35:35.086Z,98573.66
2019-03-13T23:38:01.655Z,98574.97
2019-03-13T23:40:28.238Z,98575.24
2019-03-13T23:42:54.803Z,98576.09
2019-03-13T23:45:21.384Z,98572.53
2019-03-13T23:47:47.968Z,98579.39
2019-03-13T23:50:14.548Z,98577.53
2019-03-13T23:52:41.120Z,98577.45
2019-03-13T23:55:07.717Z,98578.22
2019-03-13T23:57:34.432Z,98575.52
